Time;durP1;ratioP1;P1;durP2;ratioP2;P2;SDS_P1;SDS_P2;PMS_P1;PMS_P2;Temp;Humidity;BMP_temperature;BMP_pressure;BME280_temperature;BME280_humidity;BME280_pressure;Samples;Min_cycle;Max_cycle;Signal;HPM_P1;HPM_P2
2022/08/21 00:01:23;;;;;;;;;;;;;;;14.79;100.00;101657.59;5020068;28;20487;-81
2022/08/21 00:03:49;;;;;;;;;;;;;;;14.76;100.00;101652.41;5018146;28;19924;-81
2022/08/21 00:06:15;;;;;;;;;;;;;;;14.77;100.00;101648.81;4998308;28;19931;-81
2022/08/21 00:08:40;;;;;;;;;;;;;;;14.76;100.00;101648.91;5020869;28;19931;-82
2022/08/21 00:11:06;;;;;;;;;;;;;;;14.75;100.00;101639.16;5017829;28;20448;-82
2022/08/21 00:13:32;;;;;;;;;;;;;;;14.73;100.00;101641.88;5019338;28;20585;-81
2022/08/21 00:15:58;;;;;;;;;;;;;;;14.72;100.00;101634.84;4999423;28;20291;-82
2022/08/21 00:18:23;;;;;;;;;;;;;;;14.70;100.00;101638.53;5019225;28;20038;-82
2022/08/21 00:20:49;;;;;;;;;;;;;;;14.66;100.00;101635.16;5002296;28;20011;-80
2022/08/21 00:23:14;;;;;;;;;;;;;;;14.67;100.00;101631.53;5021467;28;19921;-81
2022/08/21 00:25:40;;;;;;;;;;;;;;;14.65;100.00;101628.06;5022160;28;19921;-81
2022/08/21 00:28:06;;;;;;;;;;;;;;;14.64;100.00;101637.00;5003082;28;19917;-81
2022/08/21 00:30:32;;;;;;;;;;;;;;;14.64;100.00;101632.56;5020843;28;19968;-82
2022/08/21 00:32:57;;;;;;;;;;;;;;;14.63;100.00;101630.84;5003786;28;19921;-81
2022/08/21 00:35:27;;;;;;;;;;;;;;;14.62;100.00;101633.56;5021393;28;19931;-81
2022/08/21 00:37:53;;;;;;;;;;;;;;;14.62;100.00;101626.44;5020873;28;19946;-81
2022/08/21 00:40:19;;;;;;;;;;;;;;;14.62;100.00;101623.78;5002772;28;19937;-81
2022/08/21 00:42:45;;;;;;;;;;;;;;;14.64;100.00;101626.34;5003618;28;20540;-81
2022/08/21 00:45:10;;;;;;;;;;;;;;;14.63;100.00;101622.84;5020759;28;20047;-81
2022/08/21 00:47:36;;;;;;;;;;;;;;;14.64;100.00;101629.00;5001874;28;19931;-81
2022/08/21 00:50:02;;;;;;;;;;;;;;;14.62;100.00;101621.13;4987043;28;20019;-81
2022/08/21 00:52:28;;;;;;;;;;;;;;;14.59;100.00;101617.75;5004502;28;19924;-81
2022/08/21 00:54:54;;;;;;;;;;;;;;;14.57;100.00;101622.25;5003286;28;19931;-80
2022/08/21 00:57:21;;;;;;;;;;;;;;;14.54;100.00;101620.63;5019808;28;19921;-82
2022/08/21 00:59:49;;;;;;;;;;;;;;;14.51;100.00;101618.97;5021701;28;19928;-81
2022/08/21 01:02:15;;;;;;;;;;;;;;;14.51;100.00;101621.63;4996437;28;19941;-81
2022/08/21 01:04:40;;;;;;;;;;;;;;;14.48;100.00;101621.78;5019186;28;20015;-81
2022/08/21 01:07:06;;;;;;;;;;;;;;;14.46;100.00;101612.16;5019795;28;21898;-82
2022/08/21 01:09:33;;;;;;;;;;;;;;;14.46;100.00;101622.81;5021357;28;21305;-81
2022/08/21 01:11:59;;;;;;;;;;;;;;;14.44;100.00;101625.53;4986891;28;19960;-81
2022/08/21 01:14:24;;;;;;;;;;;;;;;14.41;100.00;101623.03;5019659;28;20061;-81
2022/08/21 01:16:51;;;;;;;;;;;;;;;14.39;100.00;101624.91;5023759;28;20287;-82
2022/08/21 01:19:17;;;;;;;;;;;;;;;14.36;100.00;101611.75;4987985;28;19925;-82
2022/08/21 01:21:42;;;;;;;;;;;;;;;14.32;100.00;101615.50;5016496;28;19932;-81
2022/08/21 01:24:08;;;;;;;;;;;;;;;14.29;100.00;101623.63;5018022;28;19932;-82
2022/08/21 01:26:37;;;;;;;;;;;;;;;14.25;100.00;101622.91;5001089;28;19925;-81
2022/08/21 01:29:07;;;;;;;;;;;;;;;14.19;100.00;101621.44;5014312;28;20436;-81
2022/08/21 01:31:33;;;;;;;;;;;;;;;14.16;100.00;101620.72;5001566;28;20637;-82
2022/08/21 01:34:01;;;;;;;;;;;;;;;14.13;100.00;101611.06;5015582;28;19925;-82
2022/08/21 01:36:27;;;;;;;;;;;;;;;14.12;100.00;101615.53;4999959;28;19932;-82
2022/08/21 01:38:52;;;;;;;;;;;;;;;14.11;100.00;101613.81;4996370;28;20311;-81
2022/08/21 01:41:18;;;;;;;;;;;;;;;14.11;100.00;101608.47;5024916;28;19925;-83
2022/08/21 01:43:44;;;;;;;;;;;;;;;14.12;100.00;101610.19;5020150;28;19932;-82
2022/08/21 01:46:09;;;;;;;;;;;;;;;14.10;100.00;101608.53;5002678;28;20391;-82
2022/08/21 01:48:35;;;;;;;;;;;;;;;14.13;100.00;101606.59;5020509;28;19928;-82
2022/08/21 01:51:00;;;;;;;;;;;;;;;14.15;100.00;101608.34;5018061;28;19921;-81
2022/08/21 01:53:26;;;;;;;;;;;;;;;14.16;100.00;101604.75;5020428;28;20447;-81
2022/08/21 01:55:51;;;;;;;;;;;;;;;14.17;100.00;101604.63;5020924;28;19925;-81
2022/08/21 01:58:17;;;;;;;;;;;;;;;14.18;100.00;101595.75;5002526;28;19921;-81
2022/08/21 02:00:42;;;;;;;;;;;;;;;14.18;100.00;101595.75;5002591;28;19925;-82
2022/08/21 02:03:08;;;;;;;;;;;;;;;14.19;100.00;101599.25;5026472;28;19921;-82
2022/08/21 02:05:33;;;;;;;;;;;;;;;14.19;100.00;101596.59;5034569;28;20321;-81
2022/08/21 02:07:59;;;;;;;;;;;;;;;14.18;100.00;101601.06;5018987;28;19921;-81
2022/08/21 02:10:26;;;;;;;;;;;;;;;14.18;100.00;101594.88;5019762;28;19927;-81
2022/08/21 02:12:52;;;;;;;;;;;;;;;14.17;100.00;101586.00;5034410;28;19935;-83
2022/08/21 02:15:18;;;;;;;;;;;;;;;14.16;100.00;101592.28;5018647;28;19933;-83
2022/08/21 02:17:51;;;;;;;;;;;;;;;14.15;100.00;101585.22;5016083;28;19921;-83
2022/08/21 02:20:24;;;;;;;;;;;;;;;14.15;100.00;101585.22;5019509;28;19924;-82
2022/08/21 02:22:49;;;;;;;;;;;;;;;14.11;100.00;101579.19;5018871;28;19932;-82
2022/08/21 02:25:15;;;;;;;;;;;;;;;14.12;100.00;101580.06;5034825;28;19960;-83
2022/08/21 02:27:41;;;;;;;;;;;;;;;14.12;100.00;101577.41;5034663;28;20760;-83
2022/08/21 02:30:07;;;;;;;;;;;;;;;14.10;100.00;101572.13;5019132;28;19928;-83
2022/08/21 02:32:32;;;;;;;;;;;;;;;14.09;100.00;101577.53;5018538;28;19925;-82
2022/08/21 02:34:58;;;;;;;;;;;;;;;14.06;100.00;101575.88;5018564;28;20407;-82
2022/08/21 02:37:23;;;;;;;;;;;;;;;14.06;100.00;101573.22;5019232;28;20018;-82
2022/08/21 02:39:49;;;;;;;;;;;;;;;14.04;100.00;101574.22;4997228;28;19928;-82
2022/08/21 02:42:15;;;;;;;;;;;;;;;14.03;100.00;101569.84;5014795;28;20845;-82
2022/08/21 02:44:41;;;;;;;;;;;;;;;14.03;100.00;101561.84;5017227;28;19932;-82
2022/08/21 02:47:06;;;;;;;;;;;;;;;14.02;100.00;101560.13;5018681;28;19925;-82
2022/08/21 02:49:32;;;;;;;;;;;;;;;14.01;100.00;101563.75;5008632;28;19929;-82
2022/08/21 02:51:57;;;;;;;;;;;;;;;13.99;100.00;101564.69;5001392;28;20445;-83
2022/08/21 02:54:23;;;;;;;;;;;;;;;13.99;100.00;101559.34;5003223;28;19988;-82
2022/08/21 02:56:48;;;;;;;;;;;;;;;14.01;100.00;101558.41;5017864;28;20294;-82
2022/08/21 02:59:16;;;;;;;;;;;;;;;13.99;100.00;101551.38;5018034;28;20020;-81
2022/08/21 03:01:41;;;;;;;;;;;;;;;13.99;100.00;101546.03;5001521;28;20303;-81
2022/08/21 03:04:07;;;;;;;;;;;;;;;13.98;100.00;101549.66;5016927;28;20055;-82
2022/08/21 03:06:33;;;;;;;;;;;;;;;13.97;100.00;101542.59;5016804;28;19960;-82
2022/08/21 03:08:58;;;;;;;;;;;;;;;13.97;100.00;101545.28;5016824;28;19921;-83
2022/08/21 03:11:25;;;;;;;;;;;;;;;13.95;100.00;101544.47;5003624;28;19928;-84
2022/08/21 03:13:50;;;;;;;;;;;;;;;13.94;100.00;101541.91;5013588;28;19927;-82
2022/08/21 03:16:16;;;;;;;;;;;;;;;13.93;100.00;101537.47;4980474;28;19921;-82
2022/08/21 03:18:41;;;;;;;;;;;;;;;13.93;100.00;101545.47;5017356;28;20020;-83
2022/08/21 03:21:07;;;;;;;;;;;;;;;13.93;100.00;101537.47;4998174;28;20300;-84
2022/08/21 03:23:32;;;;;;;;;;;;;;;13.93;100.00;101542.81;5001126;28;19967;-82
2022/08/21 03:25:57;;;;;;;;;;;;;;;13.91;100.00;101532.25;5001827;28;19971;-81
2022/08/21 03:28:23;;;;;;;;;;;;;;;13.91;100.00;101526.94;5016948;28;19927;-82
2022/08/21 03:30:49;;;;;;;;;;;;;;;13.90;100.00;101533.16;5017038;28;19932;-83
2022/08/21 03:33:14;;;;;;;;;;;;;;;13.91;100.00;101523.41;5017637;28;19928;-83
2022/08/21 03:35:41;;;;;;;;;;;;;;;13.90;100.00;101519.00;5018040;28;20001;-82
2022/08/21 03:38:06;;;;;;;;;;;;;;;13.87;100.00;101520.03;5009800;28;20514;-82
2022/08/21 03:40:32;;;;;;;;;;;;;;;13.88;100.00;101512.91;5013885;28;19925;-83
2022/08/21 03:42:58;;;;;;;;;;;;;;;13.87;100.00;101514.69;5009836;28;20403;-82
2022/08/21 03:45:24;;;;;;;;;;;;;;;13.88;100.00;101519.06;5012859;28;19928;-82
2022/08/21 03:47:57;;;;;;;;;;;;;;;13.89;100.00;101527.94;5010083;28;19921;-83
2022/08/21 03:50:24;;;;;;;;;;;;;;;13.89;100.00;101518.13;4992620;28;20391;-84
2022/08/21 03:52:49;;;;;;;;;;;;;;;13.89;100.00;101512.81;5013940;28;19921;-82
2022/08/21 03:55:15;;;;;;;;;;;;;;;13.88;100.00;101511.09;5019994;28;19943;-82
2022/08/21 03:57:40;;;;;;;;;;;;;;;13.89;100.00;101510.16;5019496;28;19921;-83
2022/08/21 04:00:08;;;;;;;;;;;;;;;13.89;100.00;101512.81;5003529;28;19925;-84
2022/08/21 04:02:33;;;;;;;;;;;;;;;13.89;100.00;101514.63;5022710;28;19947;-84
2022/08/21 04:04:59;;;;;;;;;;;;;;;13.90;100.00;101521.69;5042554;28;20467;-84
2022/08/21 04:07:24;;;;;;;;;;;;;;;13.89;100.00;101520.78;5043213;28;19928;-84
2022/08/21 04:09:50;;;;;;;;;;;;;;;13.90;100.00;101524.34;5044076;28;20017;-83
2022/08/21 04:12:15;;;;;;;;;;;;;;;13.88;100.00;101526.22;5028861;28;19928;-82
2022/08/21 04:14:44;;;;;;;;;;;;;;;13.88;100.00;101518.25;5037356;28;20404;-82
2022/08/21 04:17:09;;;;;;;;;;;;;;;13.86;100.00;101518.31;5029880;28;19921;-81
2022/08/21 04:19:35;;;;;;;;;;;;;;;13.86;100.00;101510.31;5040349;28;20434;-82
2022/08/21 04:22:00;;;;;;;;;;;;;;;13.85;100.00;101508.59;5023848;28;19921;-82
2022/08/21 04:24:25;;;;;;;;;;;;;;;13.87;100.00;101511.16;5041838;28;19921;-84
2022/08/21 04:26:51;;;;;;;;;;;;;;;13.87;100.00;101514.69;5033836;28;19995;-84
2022/08/21 04:29:16;;;;;;;;;;;;;;;13.86;100.00;101510.31;5009061;28;19920;-83
2022/08/21 04:31:43;;;;;;;;;;;;;;;13.86;100.00;101512.97;5034294;28;19925;-82
2022/08/21 04:34:08;;;;;;;;;;;;;;;13.87;100.00;101509.38;5041070;28;19943;-82
2022/08/21 04:36:34;;;;;;;;;;;;;;;13.86;100.00;101518.31;5011782;28;20323;-81
2022/08/21 04:38:59;;;;;;;;;;;;;;;13.87;100.00;101513.81;5042111;28;19957;-82
2022/08/21 04:41:25;;;;;;;;;;;;;;;13.87;100.00;101509.38;5023089;28;19931;-84
2022/08/21 04:43:50;;;;;;;;;;;;;;;13.88;100.00;101512.91;5021126;28;19920;-83
2022/08/21 04:46:16;;;;;;;;;;;;;;;13.88;100.00;101511.09;5007285;28;19931;-83
2022/08/21 04:48:41;;;;;;;;;;;;;;;13.90;100.00;101514.53;5040498;28;20063;-82
2022/08/21 04:51:07;;;;;;;;;;;;;;;13.91;100.00;101510.97;5021960;28;19933;-83
2022/08/21 04:53:49;;;;;;;;;;;;;;;13.93;100.00;101513.53;5043303;28;19942;-85
2022/08/21 04:56:23;;;;;;;;;;;;;;;13.94;100.00;101513.47;5023953;28;19924;-84
2022/08/21 04:58:49;;;;;;;;;;;;;;;13.96;100.00;101513.38;5024225;28;19925;-83
2022/08/21 05:01:15;;;;;;;;;;;;;;;13.97;100.00;101513.31;5024496;28;19920;-83
2022/08/21 05:03:41;;;;;;;;;;;;;;;13.97;100.00;101510.66;5024184;28;20438;-83
2022/08/21 05:06:10;;;;;;;;;;;;;;;14.00;100.00;101517.59;5015552;28;19921;-84
2022/08/21 05:08:35;;;;;;;;;;;;;;;14.02;100.00;101513.09;5033339;28;19976;-84
2022/08/21 05:11:01;;;;;;;;;;;;;;;14.05;100.00;101520.06;5036366;28;19925;-83
2022/08/21 05:13:27;;;;;;;;;;;;;;;14.07;100.00;101521.72;5027307;28;19929;-82
2022/08/21 05:15:53;;;;;;;;;;;;;;;14.11;100.00;101511.78;5018977;28;19928;-82
2022/08/21 05:18:18;;;;;;;;;;;;;;;14.12;100.00;101525.00;5041838;28;20286;-82
2022/08/21 05:20:44;;;;;;;;;;;;;;;14.16;100.00;101527.53;5043579;28;20428;-82
2022/08/21 05:23:11;;;;;;;;;;;;;;;14.18;100.00;101521.19;5032574;28;20019;-82
2022/08/21 05:25:37;;;;;;;;;;;;;;;14.20;100.00;101521.97;5017749;28;20203;-83
2022/08/21 05:28:02;;;;;;;;;;;;;;;14.25;100.00;101527.06;5041378;28;19924;-82
2022/08/21 05:30:28;;;;;;;;;;;;;;;14.27;100.00;101533.16;5016441;28;20047;-82
2022/08/21 05:32:57;;;;;;;;;;;;;;;14.31;100.00;101528.53;5018298;28;19951;-83
2022/08/21 05:35:23;;;;;;;;;;;;;;;14.34;100.00;101534.56;5033176;28;20399;-83
2022/08/21 05:37:48;;;;;;;;;;;;;;;14.39;100.00;101534.34;5033497;28;19928;-82
2022/08/21 05:40:14;;;;;;;;;;;;;;;14.46;100.00;101537.56;5023025;28;20295;-83
2022/08/21 05:42:39;;;;;;;;;;;;;;;14.50;100.00;101539.97;5037517;28;19961;-82
2022/08/21 05:45:04;;;;;;;;;;;;;;;14.56;100.00;101543.28;5031792;28;20011;-82
2022/08/21 05:47:30;;;;;;;;;;;;;;;14.60;100.00;101535.03;5039127;28;19928;-83
2022/08/21 05:49:55;;;;;;;;;;;;;;;14.67;100.00;101535.59;5023895;28;19960;-83
2022/08/21 05:52:21;;;;;;;;;;;;;;;14.73;100.00;101537.94;5022208;28;20007;-82
2022/08/21 05:54:46;;;;;;;;;;;;;;;14.80;100.00;101542.06;5040191;28;20066;-82
2022/08/21 05:57:14;;;;;;;;;;;;;;;14.87;100.00;101541.72;5038906;28;20406;-82
2022/08/21 05:59:40;;;;;;;;;;;;;;;14.95;100.00;101544.84;5007544;28;19962;-83
2022/08/21 06:02:07;;;;;;;;;;;;;;;15.03;100.00;101539.13;4999302;28;19926;-83
2022/08/21 06:04:37;;;;;;;;;;;;;;;15.13;100.00;101544.78;5012902;28;19920;-83
2022/08/21 06:07:02;;;;;;;;;;;;;;;15.23;100.00;101543.38;5015058;28;19971;-83
2022/08/21 06:09:28;;;;;;;;;;;;;;;15.37;100.00;101541.75;5014801;28;19929;-83
2022/08/21 06:11:53;;;;;;;;;;;;;;;15.54;100.00;101541.69;5026035;28;20303;-82
2022/08/21 06:14:18;;;;;;;;;;;;;;;15.70;100.00;101535.50;5007008;28;19925;-84
2022/08/21 06:16:44;;;;;;;;;;;;;;;15.81;100.00;101540.22;5006062;28;19979;-83
2022/08/21 06:19:09;;;;;;;;;;;;;;;15.91;100.00;101537.91;4997430;28;19925;-83
2022/08/21 06:21:35;;;;;;;;;;;;;;;16.07;100.00;101536.09;5020644;28;19932;-83
2022/08/21 06:24:00;;;;;;;;;;;;;;;16.26;100.00;101535.03;4977942;28;19925;-82
2022/08/21 06:26:26;;;;;;;;;;;;;;;16.37;100.00;101535.25;5025521;28;20431;-83
2022/08/21 06:28:51;;;;;;;;;;;;;;;16.55;100.00;101537.75;5016100;28;19920;-83
2022/08/21 06:31:21;;;;;;;;;;;;;;;16.70;100.00;101531.53;5014139;28;19925;-83
2022/08/21 06:33:49;;;;;;;;;;;;;;;16.93;100.00;101531.03;5015419;28;19964;-83
2022/08/21 06:36:14;;;;;;;;;;;;;;;17.12;100.00;101533.50;5019147;28;20008;-83
2022/08/21 06:38:40;;;;;;;;;;;;;;;17.24;100.00;101530.06;5020165;28;19994;-82
2022/08/21 06:41:06;;;;;;;;;;;;;;;17.42;100.00;101547.72;5011089;28;19944;-81
2022/08/21 06:43:31;;;;;;;;;;;;;;;17.60;100.00;101535.81;5006815;28;19967;-83
2022/08/21 06:45:57;;;;;;;;;;;;;;;17.81;100.00;101537.22;5014433;28;20460;-82
2022/08/21 06:48:24;;;;;;;;;;;;;;;17.96;100.00;101535.31;5015852;28;19921;-82
2022/08/21 06:50:50;;;;;;;;;;;;;;;18.13;100.00;101536.91;5004253;28;19920;-82
2022/08/21 06:53:16;;;;;;;;;;;;;;;18.29;100.00;101532.25;4985695;28;19921;-82
2022/08/21 06:55:45;;;;;;;;;;;;;;;18.44;100.00;101541.09;5011228;28;20074;-82
2022/08/21 06:58:10;;;;;;;;;;;;;;;18.62;100.00;101537.25;5000066;28;20319;-82
2022/08/21 07:00:38;;;;;;;;;;;;;;;18.83;100.00;101535.75;5009881;28;19928;-82
2022/08/21 07:03:03;;;;;;;;;;;;;;;19.00;100.00;101536.38;5015774;28;20326;-82
2022/08/21 07:05:29;;;;;;;;;;;;;;;19.19;100.00;101532.44;5002382;28;19927;-82
2022/08/21 07:07:55;;;;;;;;;;;;;;;19.31;100.00;101533.38;5018688;28;19921;-82
2022/08/21 07:10:20;;;;;;;;;;;;;;;19.46;100.00;101531.41;4982578;28;19921;-83
2022/08/21 07:12:46;;;;;;;;;;;;;;;19.57;100.00;101534.19;5021015;28;19944;-82
2022/08/21 07:15:11;;;;;;;;;;;;;;;19.67;100.00;101539.75;4985742;28;19925;-82
2022/08/21 07:17:37;;;;;;;;;;;;;;;19.74;100.00;101537.44;5019417;28;19920;-83
2022/08/21 07:20:03;;;;;;;;;;;;;;;19.80;100.00;101531.63;5000988;28;19920;-82
2022/08/21 07:22:29;;;;;;;;;;;;;;;19.86;100.00;101531.19;5005651;28;19927;-83
2022/08/21 07:24:55;;;;;;;;;;;;;;;19.91;100.00;101537.06;5005378;28;19925;-83
2022/08/21 07:27:20;;;;;;;;;;;;;;;19.90;100.00;101539.88;5020034;28;19960;-83
2022/08/21 07:29:45;;;;;;;;;;;;;;;19.94;100.00;101544.88;5019895;28;20023;-83
2022/08/21 07:32:11;;;;;;;;;;;;;;;20.12;100.00;101543.66;5019011;28;19967;-82
2022/08/21 07:34:36;;;;;;;;;;;;;;;20.24;100.00;101542.75;5000869;28;20019;-82
2022/08/21 07:37:05;;;;;;;;;;;;;;;20.32;100.00;101537.63;4991252;28;19925;-82
2022/08/21 07:39:30;;;;;;;;;;;;;;;20.44;100.00;101537.69;4992548;28;20474;-83
2022/08/21 07:41:56;;;;;;;;;;;;;;;20.57;100.00;101535.75;5023060;28;20016;-82
2022/08/21 07:44:21;;;;;;;;;;;;;;;20.67;100.00;101541.28;5020840;28;20023;-82
2022/08/21 07:46:47;;;;;;;;;;;;;;;20.69;100.00;101539.31;5020809;28;19928;-82
2022/08/21 07:49:12;;;;;;;;;;;;;;;20.70;100.00;101537.50;5023939;28;19963;-81
2022/08/21 07:51:38;;;;;;;;;;;;;;;20.69;100.00;101536.63;5023012;28;20296;-81
2022/08/21 07:54:04;;;;;;;;;;;;;;;20.70;100.00;101537.50;5022555;28;19924;-82
2022/08/21 07:56:30;;;;;;;;;;;;;;;20.73;100.00;101526.47;5022248;28;20392;-82
2022/08/21 07:58:57;;;;;;;;;;;;;;;20.77;100.00;101528.81;5006005;28;20436;-82
2022/08/21 08:01:23;;;;;;;;;;;;;;;20.88;100.00;101530.69;5024684;28;20305;-81
2022/08/21 08:03:48;;;;;;;;;;;;;;;21.12;100.00;101535.13;5023596;28;19921;-82
2022/08/21 08:06:14;;;;;;;;;;;;;;;21.38;100.00;101531.31;5039959;28;19970;-82
2022/08/21 08:08:40;;;;;;;;;;;;;;;21.51;100.00;101523.09;5042168;28;19925;-82
2022/08/21 08:11:07;;;;;;;;;;;;;;;21.62;100.00;101533.00;5024063;28;19932;-83
2022/08/21 08:13:37;;;;;;;;;;;;;;;21.74;99.36;101526.63;5023165;28;21334;-82
2022/08/21 08:16:03;;;;;;;;;;;;;;;21.82;100.00;101528.66;5023122;28;19964;-81
2022/08/21 08:18:28;;;;;;;;;;;;;;;21.93;99.34;101527.78;5041534;28;20027;-82
2022/08/21 08:20:54;;;;;;;;;;;;;;;22.01;98.19;101524.44;5040991;28;20050;-82
2022/08/21 08:23:19;;;;;;;;;;;;;;;22.21;96.65;101525.44;5039254;28;20767;-81
2022/08/21 08:25:45;;;;;;;;;;;;;;;22.29;94.87;101525.69;5041103;28;19925;-81
2022/08/21 08:28:10;;;;;;;;;;;;;;;22.35;96.65;101522.44;5040247;28;20059;-82
2022/08/21 08:30:35;;;;;;;;;;;;;;;22.45;94.97;101527.06;5037791;28;20679;-81
2022/08/21 08:33:01;;;;;;;;;;;;;;;22.62;95.29;101520.25;5040510;28;21261;-81
2022/08/21 08:35:28;;;;;;;;;;;;;;;22.87;94.33;101515.41;5039022;28;20007;-82
2022/08/21 08:37:54;;;;;;;;;;;;;;;23.00;92.42;101512.47;5037261;28;19956;-81
2022/08/21 08:40:25;;;;;;;;;;;;;;;23.14;88.57;101525.59;5042312;28;20008;-81
2022/08/21 08:42:51;;;;;;;;;;;;;;;23.02;87.27;101521.28;5044204;28;20384;-80
2022/08/21 08:45:22;;;;;;;;;;;;;;;22.68;84.08;101530.50;5040553;28;19927;-81
2022/08/21 08:47:59;;;;;;;;;;;;;;;22.68;88.05;101516.16;5043907;28;19920;-82
2022/08/21 08:50:28;;;;;;;;;;;;;;;22.77;86.25;101524.28;5028942;28;19970;-81
2022/08/21 08:52:58;;;;;;;;;;;;;;;22.65;82.63;101526.22;5024469;28;19964;-81
2022/08/21 08:55:26;;;;;;;;;;;;;;;22.61;85.92;101523.94;5024440;28;20019;-81
2022/08/21 08:57:52;;;;;;;;;;;;;;;22.56;86.44;101516.25;5004714;28;19920;-81
2022/08/21 09:00:20;;;;;;;;;;;;;;;22.62;88.12;101521.06;5042206;28;19970;-81
2022/08/21 09:02:46;;;;;;;;;;;;;;;22.61;85.66;101524.78;5040687;28;19920;-81
2022/08/21 09:05:32;;;;;;;;;;;;;;;22.57;85.39;101515.25;5023599;28;19924;-82
2022/08/21 09:08:29;;;;;;;;;;;;;;;22.60;85.56;101514.13;5040311;28;19943;-81
2022/08/21 09:10:58;;;;;;;;;;;;;;;22.68;83.35;101524.25;4995933;28;20025;-81
2022/08/21 09:13:41;;;;;;;;;;;;;;;22.64;81.52;101518.25;5039310;28;20011;-80
2022/08/21 09:16:26;;;;;;;;;;;;;;;22.51;83.35;101531.97;5024122;28;19932;-80
2022/08/21 09:19:10;;;;;;;;;;;;;;;22.30;82.51;101526.50;5042566;28;19921;-80
2022/08/21 09:21:38;;;;;;;;;;;;;;;22.16;83.08;101533.09;5022963;28;19921;-81
2022/08/21 09:24:26;;;;;;;;;;;;;;;21.97;82.82;101531.94;5039743;28;19920;-81
2022/08/21 09:26:52;;;;;;;;;;;;;;;21.97;85.83;101531.94;5041135;28;19924;-81
2022/08/21 09:29:20;;;;;;;;;;;;;;;22.07;85.50;101532.84;5041247;28;20039;-80
2022/08/21 09:31:45;;;;;;;;;;;;;;;22.22;86.35;101536.13;5039031;28;21305;-81
2022/08/21 09:34:12;;;;;;;;;;;;;;;22.45;85.88;101535.16;5007601;28;19924;-81
2022/08/21 09:36:42;;;;;;;;;;;;;;;22.67;84.96;101533.31;5041349;28;20358;-81
2022/08/21 09:39:09;;;;;;;;;;;;;;;22.88;77.86;101536.00;5039223;28;19978;-80
2022/08/21 09:41:37;;;;;;;;;;;;;;;22.96;82.74;101540.72;5041400;28;19928;-81
2022/08/21 09:44:05;;;;;;;;;;;;;;;23.01;80.98;101541.19;5041339;28;19916;-80
2022/08/21 09:46:31;;;;;;;;;;;;;;;22.87;78.52;101543.25;5045282;28;20543;-80
2022/08/21 09:49:01;;;;;;;;;;;;;;;22.67;76.86;101541.41;5027585;28;20405;-80
2022/08/21 09:51:29;;;;;;;;;;;;;;;22.47;77.26;101542.13;5021231;28;21257;-80
2022/08/21 09:54:09;;;;;;;;;;;;;;;22.28;79.60;101547.38;5042020;28;19973;-81
2022/08/21 09:59:31;;;;;;;;;;;;;;;21.87;77.21;101541.75;5040832;28;19920;-81
2022/08/21 10:02:01;;;;;;;;;;;;;;;21.67;80.14;101544.22;5035456;28;19920;-81
2022/08/21 10:04:30;;;;;;;;;;;;;;;21.55;79.83;101544.25;5021977;28;19924;-80
2022/08/21 10:07:06;;;;;;;;;;;;;;;21.45;79.05;101548.66;5020780;28;19963;-80
2022/08/21 10:09:32;;;;;;;;;;;;;;;21.34;78.70;101549.53;5003231;28;20012;-80
2022/08/21 10:11:57;;;;;;;;;;;;;;;21.45;78.98;101543.28;5021886;28;19929;-80
2022/08/21 10:14:29;;;;;;;;;;;;;;;21.67;79.05;101539.69;5020747;28;19971;-80
2022/08/21 10:17:04;;;;;;;;;;;;;;;21.98;76.50;101536.34;5019980;28;20449;-80
2022/08/21 10:19:43;;;;;;;;;;;;;;;22.24;75.89;101530.59;5021613;28;20368;-80
2022/08/21 10:22:08;;;;;;;;;;;;;;;22.49;76.94;101525.78;5007446;28;19920;-80
2022/08/21 10:24:49;;;;;;;;;;;;;;;22.64;72.31;101531.75;5021915;28;19932;-80
2022/08/21 10:27:15;;;;;;;;;;;;;;;22.75;69.14;101542.47;5020848;28;19928;-80
2022/08/21 10:29:40;;;;;;;;;;;;;;;22.83;70.32;101536.41;5020126;28;20014;-80
2022/08/21 10:32:09;;;;;;;;;;;;;;;22.85;66.26;101547.06;5021313;28;20558;-78
2022/08/21 10:34:50;;;;;;;;;;;;;;;22.86;65.75;101529.88;5021071;28;20106;-80
2022/08/21 10:37:28;;;;;;;;;;;;;;;22.96;70.88;101529.91;5021347;28;20016;-80
2022/08/21 10:39:53;;;;;;;;;;;;;;;23.08;71.17;101533.41;5003188;28;19948;-81
2022/08/21 10:42:31;;;;;;;;;;;;;;;23.00;68.19;101540.34;5020718;28;19921;-81
2022/08/21 10:45:08;;;;;;;;;;;;;;;22.88;70.11;101534.16;5020842;28;19925;-80
2022/08/21 10:47:34;;;;;;;;;;;;;;;22.68;68.23;101540.44;5016916;28;20339;-80
2022/08/21 10:50:15;;;;;;;;;;;;;;;22.48;71.68;101542.97;5001883;28;19925;-79
2022/08/21 10:52:51;;;;;;;;;;;;;;;22.24;71.76;101547.63;5020193;28;20010;-79
2022/08/21 10:55:21;;;;;;;;;;;;;;;22.13;75.00;101541.44;5021065;28;20027;-80
2022/08/21 10:57:46;;;;;;;;;;;;;;;21.98;72.39;101544.44;5020177;28;20379;-80
2022/08/21 11:00:13;;;;;;;;;;;;;;;21.90;72.20;101547.75;5020214;28;19931;-80
2022/08/21 11:02:48;;;;;;;;;;;;;;;21.91;72.88;101551.31;5019267;28;20379;-80
2022/08/21 11:05:15;;;;;;;;;;;;;;;21.97;73.10;101546.25;4976784;28;20401;-80
2022/08/21 11:07:57;;;;;;;;;;;;;;;22.02;73.30;101545.03;4982014;28;20008;-81
2022/08/21 11:10:24;;;;;;;;;;;;;;;22.09;72.47;101547.09;5002395;28;19921;-81
2022/08/21 11:12:53;;;;;;;;;;;;;;;22.22;74.92;101546.06;5000437;28;19920;-80
2022/08/21 11:15:41;;;;;;;;;;;;;;;22.28;72.63;101550.91;5005073;28;20068;-80
2022/08/21 11:18:28;;;;;;;;;;;;;;;22.38;70.63;101546.47;5019631;28;19924;-80
2022/08/21 11:21:15;;;;;;;;;;;;;;;22.47;68.62;101543.94;4999391;28;19932;-81
2022/08/21 11:23:43;;;;;;;;;;;;;;;22.55;68.31;101546.88;4995306;28;19932;-80
2022/08/21 11:26:12;;;;;;;;;;;;;;;22.64;68.21;101545.22;5015517;28;20652;-81
2022/08/21 11:28:59;;;;;;;;;;;;;;;22.69;69.66;101547.53;5003395;28;19920;-80
2022/08/21 11:31:25;;;;;;;;;;;;;;;22.75;67.71;101541.59;5002634;28;20379;-81
2022/08/21 11:33:50;;;;;;;;;;;;;;;22.78;68.13;101544.91;5019907;28;19929;-79
2022/08/21 11:36:35;;;;;;;;;;;;;;;22.68;66.47;101541.28;5016865;28;19921;-81
2022/08/21 11:39:16;;;;;;;;;;;;;;;22.50;65.69;101539.16;5019419;28;19960;-81
2022/08/21 11:41:43;;;;;;;;;;;;;;;22.45;67.33;101536.00;5006005;28;19924;-80
2022/08/21 11:44:15;;;;;;;;;;;;;;;22.50;69.56;101543.72;4998757;28;20383;-82
2022/08/21 11:46:49;;;;;;;;;;;;;;;22.59;66.56;101540.25;5005407;28;19929;-80
2022/08/21 11:49:18;;;;;;;;;;;;;;;22.57;69.42;101539.53;5001435;28;20119;-81
2022/08/21 11:51:48;;;;;;;;;;;;;;;22.46;67.24;101543.13;5019611;28;19921;-78
2022/08/21 11:54:28;;;;;;;;;;;;;;;22.36;66.64;101543.03;5000418;28;20423;-81
2022/08/21 11:56:55;;;;;;;;;;;;;;;22.43;67.27;101543.38;5001130;28;19924;-79
2022/08/21 11:59:23;;;;;;;;;;;;;;;22.45;66.70;101551.34;4981605;28;20020;-80
2022/08/21 12:01:50;;;;;;;;;;;;;;;22.41;65.10;101552.56;5000802;28;19925;-79
2022/08/21 12:04:29;;;;;;;;;;;;;;;22.37;68.15;101560.94;5005539;28;19925;-80
2022/08/21 12:06:54;;;;;;;;;;;;;;;22.36;68.35;101551.13;5000848;28;19920;-80
2022/08/21 12:09:23;;;;;;;;;;;;;;;22.39;67.85;101544.63;5019265;28;20540;-79
2022/08/21 12:11:59;;;;;;;;;;;;;;;22.50;67.93;101559.91;5018630;28;19987;-79
2022/08/21 12:14:34;;;;;;;;;;;;;;;22.51;66.48;101550.84;5018158;28;19925;-80
2022/08/21 12:17:04;;;;;;;;;;;;;;;22.45;64.84;101551.34;4988789;28;20043;-80
2022/08/21 12:19:30;;;;;;;;;;;;;;;22.39;67.32;101550.88;4990727;28;19921;-80
2022/08/21 12:21:58;;;;;;;;;;;;;;;22.33;66.64;101559.47;5023919;28;19920;-80
2022/08/21 12:24:26;;;;;;;;;;;;;;;22.38;69.70;101549.16;5022395;28;19925;-80
2022/08/21 12:26:55;;;;;;;;;;;;;;;22.55;65.18;101549.56;5022013;28;20359;-80
2022/08/21 12:29:20;;;;;;;;;;;;;;;22.68;67.23;101552.09;5021063;28;20020;-80
2022/08/21 12:31:59;;;;;;;;;;;;;;;22.76;65.67;101559.50;5022746;28;19921;-79
2022/08/21 12:34:40;;;;;;;;;;;;;;;22.83;66.31;101566.09;5003255;28;19924;-79
2022/08/21 12:37:09;;;;;;;;;;;;;;;22.82;66.91;101558.97;5004527;28;19963;-79